Time;durP1;ratioP1;P1;durP2;ratioP2;P2;SDS_P1;SDS_P2;PMS_P1;PMS_P2;Temp;Humidity;BMP_temperature;BMP_pressure;BME280_temperature;BME280_humidity;BME280_pressure;Samples;Min_cycle;Max_cycle;Signal;HPM_P1;HPM_P2
2021/12/13 00:00:10;;;;;;;;;;;;;;;6.37;100.00;102578.44;5111725;28;19915;-81
2021/12/13 00:02:38;;;;;;;;;;;;;;;6.39;100.00;102571.25;5111242;28;19973;-81
2021/12/13 00:05:08;;;;;;;;;;;;;;;6.42;100.00;102574.59;5109740;28;19919;-80
2021/12/13 00:07:36;;;;;;;;;;;;;;;6.41;100.00;102564.06;5111142;28;19912;-80
2021/12/13 00:10:07;;;;;;;;;;;;;;;6.39;100.00;102556.22;5110196;28;19919;-80
2021/12/13 00:12:36;;;;;;;;;;;;;;;6.38;100.00;102545.69;5093168;28;19918;-80
2021/12/13 00:15:04;;;;;;;;;;;;;;;6.33;100.00;102536.19;5110737;28;19968;-80
2021/12/13 00:17:37;;;;;;;;;;;;;;;6.39;100.00;102545.59;5111068;28;20658;-81
2021/12/13 00:20:05;;;;;;;;;;;;;;;6.45;100.00;102544.38;5111152;28;20014;-80
2021/12/13 00:22:39;;;;;;;;;;;;;;;6.41;100.00;102535.72;5109994;28;19915;-80
2021/12/13 00:25:06;;;;;;;;;;;;;;;6.46;100.00;102541.63;5092710;28;19920;-81
2021/12/13 00:27:31;;;;;;;;;;;;;;;6.43;100.00;102530.34;5110498;28;19922;-81
2021/12/13 00:30:04;;;;;;;;;;;;;;;6.41;100.00;102526.91;5110295;28;19911;-81
2021/12/13 00:32:32;;;;;;;;;;;;;;;6.41;100.00;102526.91;5111242;28;19954;-81
2021/12/13 00:34:59;;;;;;;;;;;;;;;6.42;100.00;102523.34;5109471;28;20505;-81
2021/12/13 00:37:31;;;;;;;;;;;;;;;6.39;100.00;102521.72;5110799;28;19971;-81
2021/12/13 00:40:02;;;;;;;;;;;;;;;6.41;100.00;102518.97;5110672;28;19930;-81
2021/12/13 00:42:35;;;;;;;;;;;;;;;6.43;100.00;102525.03;5110598;28;20315;-81
2021/12/13 00:45:06;;;;;;;;;;;;;;;6.43;100.00;102525.03;5110346;28;19924;-81
2021/12/13 00:47:33;;;;;;;;;;;;;;;6.42;100.00;102536.59;5109004;28;19911;-81
2021/12/13 00:50:05;;;;;;;;;;;;;;;6.42;100.00;102540.09;5109194;28;19965;-80
2021/12/13 00:52:31;;;;;;;;;;;;;;;6.44;100.00;102543.53;5109495;28;19919;-80
2021/12/13 00:54:58;;;;;;;;;;;;;;;6.44;100.00;102547.94;5110023;27;19977;-81
2021/12/13 00:57:26;;;;;;;;;;;;;;;6.41;100.00;102549.00;5110392;28;19912;-81
2021/12/13 01:00:04;;;;;;;;;;;;;;;6.41;100.00;102553.44;5109308;28;19968;-80
2021/12/13 01:02:38;;;;;;;;;;;;;;;6.41;100.00;102561.41;5110252;28;19915;-81
2021/12/13 01:05:06;;;;;;;;;;;;;;;6.42;100.00;102577.25;5108961;28;20010;-81
2021/12/13 01:07:50;;;;;;;;;;;;;;;6.41;100.00;102577.31;5109547;28;19922;-81
2021/12/13 01:10:34;;;;;;;;;;;;;;;6.39;100.00;102580.09;5109356;28;19926;-81
2021/12/13 01:13:00;;;;;;;;;;;;;;;6.42;100.00;102589.66;5109826;28;20394;-80
2021/12/13 01:15:35;;;;;;;;;;;;;;;6.42;100.00;102602.94;5108803;28;19946;-80
2021/12/13 01:18:33;;;;;;;;;;;;;;;6.44;100.00;102611.63;5109832;28;19919;-81
2021/12/13 01:21:12;;;;;;;;;;;;;;;6.42;100.00;102619.69;5109013;28;20385;-80
2021/12/13 01:23:43;;;;;;;;;;;;;;;6.44;100.00;102624.91;5091501;28;19911;-81
2021/12/13 01:26:27;;;;;;;;;;;;;;;6.43;100.00;102624.06;5109010;28;20309;-81
2021/12/13 01:28:55;;;;;;;;;;;;;;;6.46;100.00;102636.28;5109684;28;19972;-80
2021/12/13 01:31:24;;;;;;;;;;;;;;;6.50;100.00;102657.25;5091847;28;20404;-80
2021/12/13 01:33:51;;;;;;;;;;;;;;;6.51;100.00;102652.81;5108355;28;20029;-80
2021/12/13 01:36:24;;;;;;;;;;;;;;;6.50;100.00;102651.09;5108934;28;19915;-80
2021/12/13 01:38:51;;;;;;;;;;;;;;;6.45;100.00;102645.19;5109706;28;19915;-80
2021/12/13 01:41:22;;;;;;;;;;;;;;;6.47;100.00;102643.31;5108641;28;19911;-80
2021/12/13 01:43:49;;;;;;;;;;;;;;;6.50;100.00;102651.09;5109315;28;20510;-80
2021/12/13 01:46:15;;;;;;;;;;;;;;;6.50;100.00;102638.66;5109287;28;19920;-80
2021/12/13 01:48:42;;;;;;;;;;;;;;;6.53;100.00;102638.50;5109418;28;19911;-80
2021/12/13 01:51:11;;;;;;;;;;;;;;;6.57;100.00;102644.47;5109438;28;19912;-80
2021/12/13 01:53:36;;;;;;;;;;;;;;;6.53;100.00;102643.81;5107933;28;19934;-80
2021/12/13 01:56:10;;;;;;;;;;;;;;;6.55;100.00;102656.97;5109392;28;19912;-81
2021/12/13 01:58:41;;;;;;;;;;;;;;;6.55;100.00;102651.66;5109252;28;19923;-80
2021/12/13 02:01:09;;;;;;;;;;;;;;;6.54;100.00;102644.66;5108920;28;20391;-80
2021/12/13 02:03:38;;;;;;;;;;;;;;;6.56;100.00;102648.09;5112227;28;19920;-80
2021/12/13 02:06:03;;;;;;;;;;;;;;;6.55;100.00;102652.53;5112472;28;20349;-80
2021/12/13 02:08:29;;;;;;;;;;;;;;;6.55;100.00;102654.31;5113835;27;19916;-81
2021/12/13 02:10:55;;;;;;;;;;;;;;;6.62;100.00;102660.13;5112410;28;20357;-80
2021/12/13 02:13:22;;;;;;;;;;;;;;;6.62;100.00;102649.50;5112359;28;19911;-80
2021/12/13 02:18:37;;;;;;;;;;;;;;;6.65;100.00;102658.16;5112153;28;19937;-80
2021/12/13 02:21:18;;;;;;;;;;;;;;;6.65;100.00;102647.56;5112196;28;19967;-79
2021/12/13 02:23:46;;;;;;;;;;;;;;;6.66;100.00;102648.41;5111654;28;20320;-79
2021/12/13 02:26:12;;;;;;;;;;;;;;;6.66;100.00;102651.91;5111892;28;19964;-80
2021/12/13 02:28:40;;;;;;;;;;;;;;;6.68;100.00;102660.63;5112556;28;19915;-79
2021/12/13 02:31:12;;;;;;;;;;;;;;;6.68;100.00;102668.59;5111960;28;20423;-80
2021/12/13 02:33:42;;;;;;;;;;;;;;;6.69;100.00;102675.59;5110551;28;19912;-79
2021/12/13 02:36:11;;;;;;;;;;;;;;;6.65;100.00;102663.47;5095032;28;19911;-79
2021/12/13 02:38:37;;;;;;;;;;;;;;;6.71;100.00;102684.31;5111507;28;19915;-79
2021/12/13 02:41:06;;;;;;;;;;;;;;;6.70;100.00;102679.97;5111027;28;19968;-79
2021/12/13 02:43:33;;;;;;;;;;;;;;;6.68;100.00;102667.75;5112678;28;19941;-79
2021/12/13 02:45:59;;;;;;;;;;;;;;;6.67;100.00;102666.91;5112448;28;20030;-79
2021/12/13 02:48:54;;;;;;;;;;;;;;;6.69;100.00;102672.94;5094561;28;20018;-79
2021/12/13 02:51:28;;;;;;;;;;;;;;;6.68;100.00;102671.25;5094116;28;19915;-80
2021/12/13 02:54:06;;;;;;;;;;;;;;;6.70;100.00;102668.50;5111496;28;19924;-79
2021/12/13 02:56:35;;;;;;;;;;;;;;;6.68;100.00;102671.25;5109092;28;19915;-79
2021/12/13 02:59:00;;;;;;;;;;;;;;;6.73;100.00;102678.94;5110120;28;20277;-79
2021/12/13 03:01:32;;;;;;;;;;;;;;;6.79;100.00;102693.63;5111081;28;19922;-79
2021/12/13 03:04:00;;;;;;;;;;;;;;;6.81;100.00;102683.78;5109614;28;19915;-79
2021/12/13 03:06:30;;;;;;;;;;;;;;;6.83;100.00;102685.41;5109991;28;19911;-80
2021/12/13 03:09:06;;;;;;;;;;;;;;;6.76;100.00;102678.75;5110030;28;20002;-79
2021/12/13 03:11:34;;;;;;;;;;;;;;;6.79;100.00;102681.25;5109962;28;19911;-79
2021/12/13 03:14:01;;;;;;;;;;;;;;;6.75;100.00;102685.88;5109294;28;19923;-80
2021/12/13 03:16:32;;;;;;;;;;;;;;;6.80;100.00;102698.88;5110011;28;19918;-79
2021/12/13 03:19:02;;;;;;;;;;;;;;;6.80;100.00;102700.69;5092935;28;19911;-79
2021/12/13 03:21:40;;;;;;;;;;;;;;;6.80;100.00;102695.38;5092927;28;19918;-80
2021/12/13 03:24:17;;;;;;;;;;;;;;;6.80;100.00;102690.91;5110806;28;19923;-79
2021/12/13 03:27:01;;;;;;;;;;;;;;;6.82;100.00;102702.28;5109729;28;19999;-79
2021/12/13 03:29:43;;;;;;;;;;;;;;;6.81;100.00;102705.88;5109577;28;19916;-79
2021/12/13 03:32:10;;;;;;;;;;;;;;;6.80;100.00;102690.91;5092680;28;19923;-79
2021/12/13 03:34:36;;;;;;;;;;;;;;;6.84;100.00;102702.22;5110303;28;19918;-80
2021/12/13 03:37:01;;;;;;;;;;;;;;;6.85;100.00;102695.94;5109971;28;19915;-81
2021/12/13 03:39:36;;;;;;;;;;;;;;;6.88;100.00;102696.63;5109540;28;19911;-79
2021/12/13 03:42:04;;;;;;;;;;;;;;;6.89;100.00;102687.72;5109342;28;19911;-79
2021/12/13 03:44:32;;;;;;;;;;;;;;;6.88;100.00;102679.81;5109302;28;19916;-80
2021/12/13 03:47:07;;;;;;;;;;;;;;;6.90;100.00;102683.25;5109075;28;19970;-80
2021/12/13 03:49:37;;;;;;;;;;;;;;;6.91;100.00;102680.50;5111291;28;19922;-79
2021/12/13 03:52:03;;;;;;;;;;;;;;;6.98;100.00;102691.63;5110668;28;19911;-79
2021/12/13 03:54:31;;;;;;;;;;;;;;;7.00;100.00;102687.09;5044544;28;1882054;-79
2021/12/13 03:56:57;;;;;;;;;;;;;;;6.92;100.00;102676.91;5094705;28;19911;-79
2021/12/13 03:59:24;;;;;;;;;;;;;;;7.00;100.00;102692.41;5111581;28;19923;-79
2021/12/13 04:01:51;;;;;;;;;;;;;;;6.99;100.00;102677.38;5111552;28;19941;-80
2021/12/13 04:04:25;;;;;;;;;;;;;;;7.02;100.00;102684.31;5112162;28;20027;-81
2021/12/13 04:06:53;;;;;;;;;;;;;;;7.05;100.00;102687.66;5111726;28;19965;-80
2021/12/13 04:09:20;;;;;;;;;;;;;;;7.06;100.00;102694.66;5111795;28;19956;-81
2021/12/13 04:11:46;;;;;;;;;;;;;;;7.05;100.00;102685.00;5112503;28;19945;-80
2021/12/13 04:14:18;;;;;;;;;;;;;;;7.05;100.00;102677.03;5112171;28;20007;-81
2021/12/13 04:17:03;;;;;;;;;;;;;;;7.05;100.00;102676.19;5111465;28;20010;-80
2021/12/13 04:19:37;;;;;;;;;;;;;;;7.00;100.00;102667.63;5112285;28;19911;-80
2021/12/13 04:22:03;;;;;;;;;;;;;;;7.00;100.00;102671.16;5111288;28;19922;-81
2021/12/13 04:24:36;;;;;;;;;;;;;;;6.95;100.00;102660.81;5111055;28;19931;-80
2021/12/13 04:27:06;;;;;;;;;;;;;;;6.99;100.00;102666.75;5111144;28;19911;-80
2021/12/13 04:29:34;;;;;;;;;;;;;;;7.05;100.00;102671.72;5094155;28;19911;-80
2021/12/13 04:32:10;;;;;;;;;;;;;;;7.01;100.00;102662.22;5094392;28;19922;-80
2021/12/13 04:34:39;;;;;;;;;;;;;;;7.05;100.00;102665.56;5111726;28;19919;-81
2021/12/13 04:37:05;;;;;;;;;;;;;;;7.10;100.00;102666.13;5110558;28;20185;-80
2021/12/13 04:39:32;;;;;;;;;;;;;;;7.07;100.00;102659.22;5112138;28;19916;-80
2021/12/13 04:41:59;;;;;;;;;;;;;;;7.03;100.00;102662.97;5110887;28;19915;-80
2021/12/13 04:44:38;;;;;;;;;;;;;;;7.06;100.00;102656.63;5111106;28;20349;-77
2021/12/13 04:47:14;;;;;;;;;;;;;;;7.02;100.00;102661.25;5110502;28;19955;-78
2021/12/13 04:49:43;;;;;;;;;;;;;;;7.07;100.00;102664.50;5110218;28;19938;-77
2021/12/13 04:52:11;;;;;;;;;;;;;;;7.16;100.00;102668.41;5110589;28;19923;-79
2021/12/13 04:54:38;;;;;;;;;;;;;;;7.09;100.00;102651.97;5093047;28;20259;-79
2021/12/13 04:57:04;;;;;;;;;;;;;;;7.07;100.00;102656.56;5110400;28;20002;-79
2021/12/13 04:59:30;;;;;;;;;;;;;;;7.14;100.00;102670.28;5110324;28;19915;-79
2021/12/13 05:01:57;;;;;;;;;;;;;;;7.12;100.00;102658.94;5110272;28;19938;-79
2021/12/13 05:04:24;;;;;;;;;;;;;;;7.12;100.00;102661.59;5110739;28;19923;-79
2021/12/13 05:06:50;;;;;;;;;;;;;;;7.07;100.00;102667.19;5110194;28;19911;-79
2021/12/13 05:09:17;;;;;;;;;;;;;;;7.09;100.00;102657.28;5111169;28;19919;-79
2021/12/13 05:11:52;;;;;;;;;;;;;;;7.10;100.00;102672.28;5110566;28;19980;-80
2021/12/13 05:14:28;;;;;;;;;;;;;;;7.12;100.00;102667.75;5109736;28;19941;-79
2021/12/13 05:16:55;;;;;;;;;;;;;;;7.09;100.00;102659.94;5111066;28;19916;-79
2021/12/13 05:19:31;;;;;;;;;;;;;;;7.06;100.00;102660.13;5109903;28;19968;-79
2021/12/13 05:21:58;;;;;;;;;;;;;;;7.06;100.00;102653.97;5109911;28;19927;-79
2021/12/13 05:24:26;;;;;;;;;;;;;;;7.08;100.00;102662.72;5110473;28;20230;-79
2021/12/13 05:26:59;;;;;;;;;;;;;;;7.06;100.00;102662.78;5109973;28;19911;-79
2021/12/13 05:29:51;;;;;;;;;;;;;;;7.06;100.00;102662.78;5109835;28;19919;-79
2021/12/13 05:32:17;;;;;;;;;;;;;;;7.11;100.00;102674.00;5107575;28;19919;-79
2021/12/13 05:34:47;;;;;;;;;;;;;;;7.10;100.00;102671.44;5109472;28;20248;-78
2021/12/13 05:37:13;;;;;;;;;;;;;;;7.08;100.00;102668.88;5092702;28;19911;-78
2021/12/13 05:39:53;;;;;;;;;;;;;;;7.09;100.00;102677.69;5092799;28;19918;-78
2021/12/13 05:42:18;;;;;;;;;;;;;;;7.10;100.00;102682.06;5092724;28;19998;-78
2021/12/13 05:44:45;;;;;;;;;;;;;;;7.12;100.00;102688.16;5109990;28;20196;-76
2021/12/13 05:47:21;;;;;;;;;;;;;;;7.09;100.00;102678.53;5110324;28;19922;-77
2021/12/13 05:49:47;;;;;;;;;;;;;;;7.06;100.00;102673.41;5109423;28;20256;-77
2021/12/13 05:52:19;;;;;;;;;;;;;;;7.09;100.00;102683.00;5092573;28;19956;-77
2021/12/13 05:54:50;;;;;;;;;;;;;;;7.14;100.00;102689.75;5109961;28;20451;-77
2021/12/13 05:57:21;;;;;;;;;;;;;;;7.22;100.00;102696.41;5109361;28;20356;-77
2021/12/13 06:00:02;;;;;;;;;;;;;;;7.23;100.00;102701.59;5109337;28;19912;-78
2021/12/13 06:02:40;;;;;;;;;;;;;;;7.20;100.00;102693.84;5109592;28;20007;-78
2021/12/13 06:05:17;;;;;;;;;;;;;;;7.19;100.00;102697.44;5109798;28;20539;-78
2021/12/13 06:07:51;;;;;;;;;;;;;;;7.23;100.00;102703.41;5109097;28;19962;-78
2021/12/13 06:10:18;;;;;;;;;;;;;;;7.22;100.00;102705.22;5109572;28;19938;-79
2021/12/13 06:12:51;;;;;;;;;;;;;;;7.26;100.00;102717.38;5109423;28;20002;-78
2021/12/13 06:15:16;;;;;;;;;;;;;;;7.31;100.00;102725.09;5109039;28;19912;-79
2021/12/13 06:18:05;;;;;;;;;;;;;;;7.36;100.00;102734.47;5109336;28;19994;-78
2021/12/13 06:20:43;;;;;;;;;;;;;;;7.37;100.00;102736.19;5098257;28;19973;-78
2021/12/13 06:23:16;;;;;;;;;;;;;;;7.41;100.00;102742.16;5109152;28;19998;-78
2021/12/13 06:25:44;;;;;;;;;;;;;;;7.45;100.00;102742.84;5109608;28;19950;-77
2021/12/13 06:28:28;;;;;;;;;;;;;;;7.44;100.00;102746.44;5109876;28;19915;-77
2021/12/13 06:31:02;;;;;;;;;;;;;;;7.51;100.00;102745.97;5109519;28;19965;-77
2021/12/13 06:33:28;;;;;;;;;;;;;;;7.50;100.00;102744.25;5109607;28;19975;-77
2021/12/13 06:35:53;;;;;;;;;;;;;;;7.58;100.00;102749.09;5117486;28;20472;-78
2021/12/13 06:38:19;;;;;;;;;;;;;;;7.63;100.00;102746.16;5120720;28;19927;-77
2021/12/13 06:41:05;;;;;;;;;;;;;;;7.61;100.00;102746.28;5129517;27;19958;-76
2021/12/13 06:43:34;;;;;;;;;;;;;;;7.58;100.00;102746.44;5114374;27;20623;-76
2021/12/13 06:46:01;;;;;;;;;;;;;;;7.58;100.00;102744.63;5107558;28;19926;-76
2021/12/13 06:48:32;;;;;;;;;;;;;;;7.55;100.00;102742.19;5110280;27;19923;-75
2021/12/13 06:50:57;;;;;;;;;;;;;;;7.56;100.00;102751.88;5111286;27;20328;-76
2021/12/13 06:53:23;;;;;;;;;;;;;;;7.56;100.00;102746.56;5111472;28;19930;-76
2021/12/13 06:55:48;;;;;;;;;;;;;;;7.63;100.00;102756.78;5112185;28;19911;-76
2021/12/13 06:58:16;;;;;;;;;;;;;;;7.54;100.00;102743.13;5112494;28;20010;-75
2021/12/13 07:00:42;;;;;;;;;;;;;;;7.55;100.00;102755.47;5113339;28;19918;-75
2021/12/13 07:03:09;;;;;;;;;;;;;;;7.58;100.00;102752.59;5112479;28;19911;-75
2021/12/13 07:05:52;;;;;;;;;;;;;;;7.59;100.00;102756.16;5111932;28;19924;-76
2021/12/13 07:08:20;;;;;;;;;;;;;;;7.61;100.00;102771.06;5112232;28;19912;-76
2021/12/13 07:11:06;;;;;;;;;;;;;;;7.60;100.00;102760.50;5112333;28;19908;-76
2021/12/13 07:13:37;;;;;;;;;;;;;;;7.60;100.00;102764.00;5111323;28;19964;-75
2021/12/13 07:16:04;;;;;;;;;;;;;;;7.66;100.00;102770.78;5113009;28;19911;-76
2021/12/13 07:18:38;;;;;;;;;;;;;;;7.63;100.00;102767.44;5112047;28;19916;-76
2021/12/13 07:21:05;;;;;;;;;;;;;;;7.66;100.00;102772.59;5095097;28;20103;-76
2021/12/13 07:23:50;;;;;;;;;;;;;;;7.63;100.00;102772.75;5112588;28;19911;-76
2021/12/13 07:26:26;;;;;;;;;;;;;;;7.65;100.00;102776.16;5112048;28;20002;-76
2021/12/13 07:28:52;;;;;;;;;;;;;;;7.66;100.00;102773.44;5111836;28;19912;-76
2021/12/13 07:31:18;;;;;;;;;;;;;;;7.69;100.00;102777.69;5091139;28;19912;-75
2021/12/13 07:33:44;;;;;;;;;;;;;;;7.66;100.00;102772.59;5091229;28;19912;-75
2021/12/13 07:36:15;;;;;;;;;;;;;;;7.68;100.00;102774.19;5090901;28;19915;-75
2021/12/13 07:38:48;;;;;;;;;;;;;;;7.69;100.00;102775.03;5091342;28;19935;-75
2021/12/13 07:41:14;;;;;;;;;;;;;;;7.67;100.00;102772.47;5092291;28;19958;-74
2021/12/13 07:43:45;;;;;;;;;;;;;;;7.70;100.00;102774.09;5074126;28;20353;-74
2021/12/13 07:46:11;;;;;;;;;;;;;;;7.70;100.00;102774.09;5108154;28;19919;-75
2021/12/13 07:48:50;;;;;;;;;;;;;;;7.72;100.00;102775.69;5091177;28;19911;-74
2021/12/13 07:51:15;;;;;;;;;;;;;;;7.76;100.00;102782.53;5091235;28;19926;-75
2021/12/13 07:53:46;;;;;;;;;;;;;;;7.75;100.00;102764.88;5073724;28;19912;-75
2021/12/13 07:56:18;;;;;;;;;;;;;;;7.80;100.00;102768.13;5090805;28;19912;-74
2021/12/13 07:58:45;;;;;;;;;;;;;;;7.77;100.00;102775.41;5089833;28;19955;-75
2021/12/13 08:01:12;;;;;;;;;;;;;;;7.74;100.00;102775.59;5093674;28;19912;-75
2021/12/13 08:03:46;;;;;;;;;;;;;;;7.80;100.00;102786.72;5093862;28;19911;-75
2021/12/13 08:06:11;;;;;;;;;;;;;;;7.82;100.00;102778.66;5111093;28;19973;-75
2021/12/13 08:08:44;;;;;;;;;;;;;;;7.85;100.00;102786.44;5111101;28;19946;-75
2021/12/13 08:11:09;;;;;;;;;;;;;;;7.86;100.00;102780.16;5111862;28;19926;-75
2021/12/13 08:13:35;;;;;;;;;;;;;;;7.83;100.00;102769.72;5109206;28;19915;-75
2021/12/13 08:16:03;;;;;;;;;;;;;;;7.85;100.00;102778.47;5111112;28;19976;-75
2021/12/13 08:18:30;;;;;;;;;;;;;;;7.83;100.00;102765.25;5108732;28;19988;-76
2021/12/13 08:21:07;;;;;;;;;;;;;;;7.83;100.00;102767.91;5110148;28;20464;-76
2021/12/13 08:23:40;;;;;;;;;;;;;;;7.91;100.00;102778.06;5110219;28;20333;-76
2021/12/13 08:26:08;;;;;;;;;;;;;;;7.88;100.00;102767.63;5109033;28;20304;-76
2021/12/13 08:28:42;;;;;;;;;;;;;;;7.88;100.00;102770.28;5110605;28;19915;-76
2021/12/13 08:31:09;;;;;;;;;;;;;;;7.90;100.00;102765.72;5110571;28;20477;-76
2021/12/13 08:33:37;;;;;;;;;;;;;;;7.97;100.00;102767.06;5093037;28;19920;-76
2021/12/13 08:36:11;;;;;;;;;;;;;;;8.00;100.00;102760.69;5110793;28;19953;-76
2021/12/13 08:38:39;;;;;;;;;;;;;;;7.98;100.00;102752.81;5110757;28;19922;-77
2021/12/13 08:41:16;;;;;;;;;;;;;;;8.01;100.00;102752.63;5110844;28;19960;-76
2021/12/13 08:43:54;;;;;;;;;;;;;;;8.04;100.00;102763.06;5111103;28;19935;-77
2021/12/13 08:46:28;;;;;;;;;;;;;;;8.11;100.00;102744.91;5110594;28;19919;-78
2021/12/13 08:48:53;;;;;;;;;;;;;;;8.17;100.00;102738.31;5110535;28;20443;-77
2021/12/13 08:51:22;;;;;;;;;;;;;;;8.19;100.00;102721.34;5110429;28;19972;-77
2021/12/13 08:54:07;;;;;;;;;;;;;;;8.21;100.00;102715.91;5093024;28;19915;-77
2021/12/13 08:56:34;;;;;;;;;;;;;;;8.21;100.00;102706.09;5092757;28;19922;-77
2021/12/13 08:59:09;;;;;;;;;;;;;;;8.22;100.00;102702.50;5110114;28;20006;-77
2021/12/13 09:01:43;;;;;;;;;;;;;;;8.24;100.00;102694.41;5111225;28;19950;-76
2021/12/13 09:04:09;;;;;;;;;;;;;;;8.27;100.00;102712.84;5109944;28;19920;-77
2021/12/13 09:06:35;;;;;;;;;;;;;;;8.27;100.00;102699.53;5093254;28;20359;-76
2021/12/13 09:09:12;;;;;;;;;;;;;;;8.29;100.00;102697.66;5110095;28;19940;-76
2021/12/13 09:11:45;;;;;;;;;;;;;;;8.36;100.00;102695.44;5109721;28;19994;-77
2021/12/13 09:14:24;;;;;;;;;;;;;;;8.32;100.00;102692.13;5092822;28;20272;-76
2021/12/13 09:17:09;;;;;;;;;;;;;;;8.32;100.00;102689.44;5110014;28;19966;-77
2021/12/13 09:19:44;;;;;;;;;;;;;;;8.31;100.00;102679.78;5109876;28;19920;-77
2021/12/13 09:22:16;;;;;;;;;;;;;;;8.39;100.00;102682.78;5109948;28;19942;-76
2021/12/13 09:24:47;;;;;;;;;;;;;;;8.42;100.00;102682.59;5110412;28;19915;-77
2021/12/13 09:27:16;;;;;;;;;;;;;;;8.45;100.00;102684.19;5109805;28;19912;-76
2021/12/13 09:29:54;;;;;;;;;;;;;;;8.47;100.00;102684.09;5109665;28;20400;-76
2021/12/13 09:32:19;;;;;;;;;;;;;;;8.45;100.00;102677.09;5110015;28;19915;-76
2021/12/13 09:34:45;;;;;;;;;;;;;;;8.49;100.00;102679.53;5109555;28;19924;-76
2021/12/13 09:37:11;;;;;;;;;;;;;;;8.50;100.00;102694.53;5109743;28;19998;-77
2021/12/13 09:39:36;;;;;;;;;;;;;;;8.52;100.00;102697.94;5109723;28;19911;-76
2021/12/13 09:42:22;;;;;;;;;;;;;;;8.59;100.00;102715.22;5109636;28;20268;-76
2021/12/13 09:45:01;;;;;;;;;;;;;;;8.61;100.00;102716.84;5109111;28;19973;-76
2021/12/13 09:47:31;;;;;;;;;;;;;;;8.63;100.00;102709.59;5108748;28;19918;-76
2021/12/13 09:49:57;;;;;;;;;;;;;;;8.71;100.00;102719.75;5092419;28;20252;-76
2021/12/13 09:52:36;;;;;;;;;;;;;;;8.69;100.00;102704.84;5109452;28;19912;-76
2021/12/13 09:55:06;;;;;;;;;;;;;;;8.81;100.00;102707.53;5110058;28;20248;-76
2021/12/13 09:57:50;;;;;;;;;;;;;;;8.80;100.00;102694.31;5109495;28;20052;-76
2021/12/13 10:00:22;;;;;;;;;;;;;;;8.86;100.00;102684.09;5110369;28;19922;-76
2021/12/13 10:02:50;;;;;;;;;;;;;;;8.85;100.00;102661.09;5110302;28;20253;-76
2021/12/13 10:05:18;;;;;;;;;;;;;;;8.87;100.00;102647.66;5092092;28;19911;-76
2021/12/13 10:07:44;;;;;;;;;;;;;;;8.84;100.00;102619.41;5110334;28;20023;-76
2021/12/13 10:10:10;;;;;;;;;;;;;;;8.86;100.00;102601.53;5109210;28;19923;-76
2021/12/13 10:12:44;;;;;;;;;;;;;;;8.87;100.00;102584.59;5109391;28;19922;-76
2021/12/13 10:15:13;;;;;;;;;;;;;;;8.86;100.00;102556.25;5108995;28;19969;-76
2021/12/13 10:17:41;;;;;;;;;;;;;;;8.96;100.00;102552.94;5109178;28;19912;-76
2021/12/13 10:20:10;;;;;;;;;;;;;;;9.00;100.00;102525.13;5110093;28;19911;-77
2021/12/13 10:22:36;;;;;;;;;;;;;;;8.96;100.00;102489.84;5111453;28;19915;-76
2021/12/13 10:25:04;;;;;;;;;;;;;;;9.02;100.00;102489.41;5113742;28;19927;-76
2021/12/13 10:27:31;;;;;;;;;;;;;;;8.98;100.00;102450.63;5113018;28;19923;-76
2021/12/13 10:29:58;;;;;;;;;;;;;;;9.01;100.00;102441.56;5114126;28;19918;-75
2021/12/13 10:32:26;;;;;;;;;;;;;;;9.06;100.00;102420.75;5113394;28;20011;-76
2021/12/13 10:35:05;;;;;;;;;;;;;;;9.08;100.00;102403.72;5095749;28;19922;-76
2021/12/13 10:37:38;;;;;;;;;;;;;;;9.06;100.00;102373.69;5113049;28;19911;-76
2021/12/13 10:40:13;;;;;;;;;;;;;;;9.02;100.00;102350.03;5113037;28;19915;-76
2021/12/13 10:42:40;;;;;;;;;;;;;;;9.03;100.00;102335.75;5095808;28;19994;-77
2021/12/13 10:45:11;;;;;;;;;;;;;;;9.15;100.00;102326.81;5113489;28;19923;-76
2021/12/13 10:47:39;;;;;;;;;;;;;;;9.12;100.00;102313.75;5112892;28;19911;-77
2021/12/13 10:50:06;;;;;;;;;;;;;;;9.04;100.00;102297.50;5112866;28;19911;-77
2021/12/13 10:52:34;;;;;;;;;;;;;;;9.14;100.00;102285.16;5112840;28;19996;-77
2021/12/13 10:55:01;;;;;;;;;;;;;;;9.09;100.00;102266.03;5095293;28;19941;-77
2021/12/13 10:57:28;;;;;;;;;;;;;;;9.08;100.00;102240.31;5113552;28;19923;-77
2021/12/13 10:59:55;;;;;;;;;;;;;;;9.14;100.00;102229.22;5095612;28;20005;-78
2021/12/13 11:02:26;;;;;;;;;;;;;;;9.07;100.00;102215.50;5095519;28;19931;-77
2021/12/13 11:04:54;;;;;;;;;;;;;;;9.22;100.00;102215.28;5113028;28;19945;-78
2021/12/13 11:07:20;;;;;;;;;;;;;;;9.15;100.00;102200.75;5113444;28;19912;-78
2021/12/13 11:09:46;;;;;;;;;;;;;;;8.99;100.00;102174.41;5113353;28;19960;-78
2021/12/13 11:12:32;;;;;;;;;;;;;;;9.03;100.00;102165.25;5112382;28;20032;-79
2021/12/13 11:14:59;;;;;;;;;;;;;;;8.95;100.00;102157.00;5113204;27;19955;-79
2021/12/13 11:17:27;;;;;;;;;;;;;;;9.02;100.00;102166.22;5095489;28;20010;-79
2021/12/13 11:19:55;;;;;;;;;;;;;;;8.91;100.00;102148.38;5112448;28;19911;-79
2021/12/13 11:22:23;;;;;;;;;;;;;;;8.95;100.00;102135.69;5112579;28;20260;-79
2021/12/13 11:24:52;;;;;;;;;;;;;;;8.99;100.00;102132.69;5095059;28;19981;-79
2021/12/13 11:27:19;;;;;;;;;;;;;;;9.02;100.00;102134.25;5113664;28;19938;-81
2021/12/13 11:29:46;;;;;;;;;;;;;;;9.02;100.00;102132.44;5112710;28;19919;-81
2021/12/13 11:32:44;;;;;;;;;;;;;;;8.99;100.00;102119.34;5111911;28;19930;-81
2021/12/13 11:35:28;;;;;;;;;;;;;;;8.93;100.00;102101.16;5112141;28;20010;-81
2021/12/13 11:38:20;;;;;;;;;;;;;;;8.95;100.00;102098.41;5113793;28;20161;-80
2021/12/13 11:40:53;;;;;;;;;;;;;;;8.90;100.00;102085.44;5113140;28;19915;-81
2021/12/13 11:43:37;;;;;;;;;;;;;;;9.01;100.00;102092.56;5113807;28;19949;-81
2021/12/13 11:46:23;;;;;;;;;;;;;;;8.99;100.00;102078.53;5112752;28;19957;-84
2021/12/13 11:49:07;;;;;;;;;;;;;;;8.99;100.00;102075.88;5112580;28;20256;-82
2021/12/13 11:51:52;;;;;;;;;;;;;;;9.01;100.00;102065.94;5113614;28;19972;-85
2021/12/13 11:54:36;;;;;;;;;;;;;;;8.93;100.00;102057.72;5110627;28;19947;-82
2021/12/13 11:57:11;;;;;;;;;;;;;;;8.93;100.00;102053.22;5111076;28;19916;-84
2021/12/13 11:59:40;;;;;;;;;;;;;;;8.97;100.00;102048.53;5110985;28;19998;-83
2021/12/13 12:02:10;;;;;;;;;;;;;;;8.94;100.00;102046.09;5111658;28;19939;-82
2021/12/13 12:04:54;;;;;;;;;;;;;;;8.96;100.00;102030.81;5110017;28;20416;-81
2021/12/13 12:07:39;;;;;;;;;;;;;;;8.90;100.00;102021.50;5111144;28;19915;-81
2021/12/13 12:10:08;;;;;;;;;;;;;;;8.92;100.00;102018.72;5093590;28;19922;-83
2021/12/13 12:12:52;;;;;;;;;;;;;;;8.93;100.00;102018.59;5110693;28;20287;-83
2021/12/13 12:15:18;;;;;;;;;;;;;;;8.93;100.00;102020.44;5110972;27;19922;-82
2021/12/13 12:17:44;;;;;;;;;;;;;;;8.83;100.00;102015.81;5093307;28;20621;-81
2021/12/13 12:20:12;;;;;;;;;;;;;;;8.83;100.00;102013.16;5109862;28;19927;-80
2021/12/13 12:22:46;;;;;;;;;;;;;;;8.92;100.00;102016.06;5093050;28;19938;-80
2021/12/13 12:25:12;;;;;;;;;;;;;;;8.94;100.00;102011.44;5109519;28;19916;-80
2021/12/13 12:27:37;;;;;;;;;;;;;;;8.99;100.00;102020.78;5110784;28;19915;-80
2021/12/13 12:30:03;;;;;;;;;;;;;;;8.98;100.00;102018.25;5109710;28;19911;-80
2021/12/13 12:32:33;;;;;;;;;;;;;;;8.91;100.00;102011.69;5110568;28;20448;-80
2021/12/13 12:35:00;;;;;;;;;;;;;;;8.88;100.00;102000.31;5109449;28;19926;-80
2021/12/13 12:37:32;;;;;;;;;;;;;;;8.84;100.00;102006.84;5092687;28;19911;-79
2021/12/13 12:40:07;;;;;;;;;;;;;;;8.93;100.00;102010.63;5109656;28;20003;-80
2021/12/13 12:42:35;;;;;;;;;;;;;;;8.85;100.00;102005.91;5110416;28;19911;-79
2021/12/13 12:45:04;;;;;;;;;;;;;;;8.91;100.00;102017.03;5091209;28;20293;-80
2021/12/13 12:47:36;;;;;;;;;;;;;;;8.81;100.00;102015.09;5110373;28;19969;-80
2021/12/13 12:50:15;;;;;;;;;;;;;;;8.80;100.00;102005.41;5110628;28;19912;-80
2021/12/13 12:52:50;;;;;;;;;;;;;;;8.84;100.00;102000.69;5109767;28;20329;-80
2021/12/13 12:55:17;;;;;;;;;;;;;;;8.85;100.00;101997.06;5110958;28;19915;-79
2021/12/13 12:57:43;;;;;;;;;;;;;;;8.82;100.00;101998.13;5110615;28;19923;-79